sensor_id;sensor_type;location;lat;lon;timestamp;P1;durP1;ratioP1;P2;durP2;ratioP2
82811;SDS011;72567;55.696;37.960;2024-03-02T00:01:03;43.70;;;24.80;;
82811;SDS011;72567;55.696;37.960;2024-03-02T00:04:04;42.97;;;22.60;;
82811;SDS011;72567;55.696;37.960;2024-03-02T00:07:07;55.28;;;25.65;;
82811;SDS011;72567;55.696;37.960;2024-03-02T00:10:10;49.05;;;23.02;;
82811;SDS011;72567;55.696;37.960;2024-03-02T00:13:12;43.88;;;22.20;;
82811;SDS011;72567;55.696;37.960;2024-03-02T00:16:13;49.10;;;24.63;;
82811;SDS011;72567;55.696;37.960;2024-03-02T00:19:14;53.13;;;24.52;;
82811;SDS011;72567;55.696;37.960;2024-03-02T00:22:14;46.42;;;23.80;;
82811;SDS011;72567;55.696;37.960;2024-03-02T00:25:15;52.17;;;24.15;;
82811;SDS011;72567;55.696;37.960;2024-03-02T00:28:23;47.88;;;21.27;;
82811;SDS011;72567;55.696;37.960;2024-03-02T00:34:29;51.45;;;24.25;;
82811;SDS011;72567;55.696;37.960;2024-03-02T00:37:29;44.47;;;22.83;;
82811;SDS011;72567;55.696;37.960;2024-03-02T00:40:30;49.17;;;24.02;;
82811;SDS011;72567;55.696;37.960;2024-03-02T00:43:43;47.38;;;23.77;;
82811;SDS011;72567;55.696;37.960;2024-03-02T00:46:46;43.92;;;21.92;;
82811;SDS011;72567;55.696;37.960;2024-03-02T00:49:47;46.92;;;22.60;;
82811;SDS011;72567;55.696;37.960;2024-03-02T00:52:48;46.40;;;22.02;;
82811;SDS011;72567;55.696;37.960;2024-03-02T00:55:49;45.35;;;22.85;;
82811;SDS011;72567;55.696;37.960;2024-03-02T00:58:50;42.40;;;22.15;;
82811;SDS011;72567;55.696;37.960;2024-03-02T01:01:51;48.35;;;23.92;;
82811;SDS011;72567;55.696;37.960;2024-03-02T01:04:52;45.40;;;21.52;;
82811;SDS011;72567;55.696;37.960;2024-03-02T01:07:52;44.97;;;20.50;;
82811;SDS011;72567;55.696;37.960;2024-03-02T01:10:53;48.95;;;21.27;;
82811;SDS011;72567;55.696;37.960;2024-03-02T01:13:54;40.30;;;20.60;;
82811;SDS011;72567;55.696;37.960;2024-03-02T01:16:55;52.75;;;22.35;;
82811;SDS011;72567;55.696;37.960;2024-03-02T01:19:56;43.67;;;23.15;;
82811;SDS011;72567;55.696;37.960;2024-03-02T01:22:56;47.67;;;21.92;;
82811;SDS011;72567;55.696;37.960;2024-03-02T01:25:57;49.55;;;23.55;;
82811;SDS011;72567;55.696;37.960;2024-03-02T01:28:58;44.72;;;22.20;;
82811;SDS011;72567;55.696;37.960;2024-03-02T01:31:58;44.60;;;22.05;;
82811;SDS011;72567;55.696;37.960;2024-03-02T01:34:59;48.00;;;21.40;;
82811;SDS011;72567;55.696;37.960;2024-03-02T01:38:00;37.97;;;21.45;;
82811;SDS011;72567;55.696;37.960;2024-03-02T01:41:01;45.20;;;21.33;;
82811;SDS011;72567;55.696;37.960;2024-03-02T01:44:02;49.67;;;22.33;;
82811;SDS011;72567;55.696;37.960;2024-03-02T01:47:03;44.33;;;21.27;;
82811;SDS011;72567;55.696;37.960;2024-03-02T01:50:03;41.03;;;18.70;;
82811;SDS011;72567;55.696;37.960;2024-03-02T01:53:04;39.00;;;19.33;;
82811;SDS011;72567;55.696;37.960;2024-03-02T01:56:05;44.60;;;21.63;;
82811;SDS011;72567;55.696;37.960;2024-03-02T01:59:06;36.65;;;18.98;;
82811;SDS011;72567;55.696;37.960;2024-03-02T02:02:07;42.20;;;20.50;;
82811;SDS011;72567;55.696;37.960;2024-03-02T02:05:07;42.63;;;20.95;;
82811;SDS011;72567;55.696;37.960;2024-03-02T02:08:09;44.45;;;20.63;;
82811;SDS011;72567;55.696;37.960;2024-03-02T02:11:09;43.00;;;20.42;;
82811;SDS011;72567;55.696;37.960;2024-03-02T02:14:10;42.80;;;21.48;;
82811;SDS011;72567;55.696;37.960;2024-03-02T02:17:11;42.67;;;20.75;;
82811;SDS011;72567;55.696;37.960;2024-03-02T02:20:12;37.65;;;18.35;;
82811;SDS011;72567;55.696;37.960;2024-03-02T02:23:13;50.28;;;23.42;;
82811;SDS011;72567;55.696;37.960;2024-03-02T02:26:13;38.15;;;19.67;;
82811;SDS011;72567;55.696;37.960;2024-03-02T02:29:14;42.30;;;20.13;;
82811;SDS011;72567;55.696;37.960;2024-03-02T02:32:15;36.78;;;19.52;;
82811;SDS011;72567;55.696;37.960;2024-03-02T02:35:15;49.40;;;21.75;;
82811;SDS011;72567;55.696;37.960;2024-03-02T02:38:16;43.80;;;20.17;;
82811;SDS011;72567;55.696;37.960;2024-03-02T02:41:17;38.50;;;19.75;;
82811;SDS011;72567;55.696;37.960;2024-03-02T02:44:17;42.97;;;18.65;;
82811;SDS011;72567;55.696;37.960;2024-03-02T02:47:18;38.97;;;20.65;;
82811;SDS011;72567;55.696;37.960;2024-03-02T02:50:19;37.15;;;18.77;;
82811;SDS011;72567;55.696;37.960;2024-03-02T02:53:19;48.25;;;21.17;;
82811;SDS011;72567;55.696;37.960;2024-03-02T02:56:20;38.38;;;19.80;;
82811;SDS011;72567;55.696;37.960;2024-03-02T02:59:20;47.50;;;21.60;;
82811;SDS011;72567;55.696;37.960;2024-03-02T03:02:21;43.58;;;20.33;;
82811;SDS011;72567;55.696;37.960;2024-03-02T03:05:22;43.75;;;22.23;;
82811;SDS011;72567;55.696;37.960;2024-03-02T03:08:22;46.42;;;21.73;;
82811;SDS011;72567;55.696;37.960;2024-03-02T03:11:23;45.67;;;21.63;;
82811;SDS011;72567;55.696;37.960;2024-03-02T03:14:26;48.17;;;19.45;;
82811;SDS011;72567;55.696;37.960;2024-03-02T03:17:27;40.25;;;21.67;;
82811;SDS011;72567;55.696;37.960;2024-03-02T03:20:28;48.67;;;22.88;;
82811;SDS011;72567;55.696;37.960;2024-03-02T03:23:28;47.60;;;22.65;;
82811;SDS011;72567;55.696;37.960;2024-03-02T03:26:29;47.63;;;22.38;;
82811;SDS011;72567;55.696;37.960;2024-03-02T03:29:29;48.13;;;21.30;;
82811;SDS011;72567;55.696;37.960;2024-03-02T03:32:30;56.90;;;25.77;;
82811;SDS011;72567;55.696;37.960;2024-03-02T03:35:31;43.15;;;18.65;;
82811;SDS011;72567;55.696;37.960;2024-03-02T03:38:32;43.70;;;21.42;;
82811;SDS011;72567;55.696;37.960;2024-03-02T03:41:32;54.65;;;25.15;;
82811;SDS011;72567;55.696;37.960;2024-03-02T03:44:33;55.60;;;24.92;;
82811;SDS011;72567;55.696;37.960;2024-03-02T03:47:34;47.72;;;23.65;;
82811;SDS011;72567;55.696;37.960;2024-03-02T03:50:34;45.97;;;22.83;;
82811;SDS011;72567;55.696;37.960;2024-03-02T03:53:35;50.40;;;26.40;;
82811;SDS011;72567;55.696;37.960;2024-03-02T03:56:36;48.28;;;24.08;;
82811;SDS011;72567;55.696;37.960;2024-03-02T03:59:37;45.38;;;23.83;;
82811;SDS011;72567;55.696;37.960;2024-03-02T04:02:37;52.70;;;25.83;;
82811;SDS011;72567;55.696;37.960;2024-03-02T04:05:38;52.25;;;25.02;;
82811;SDS011;72567;55.696;37.960;2024-03-02T04:08:41;48.83;;;23.10;;
82811;SDS011;72567;55.696;37.960;2024-03-02T04:11:41;47.55;;;23.55;;
82811;SDS011;72567;55.696;37.960;2024-03-02T04:14:42;41.15;;;19.77;;
82811;SDS011;72567;55.696;37.960;2024-03-02T04:17:43;65.75;;;30.25;;
82811;SDS011;72567;55.696;37.960;2024-03-02T04:20:43;53.85;;;28.20;;
82811;SDS011;72567;55.696;37.960;2024-03-02T04:23:44;57.15;;;26.83;;
82811;SDS011;72567;55.696;37.960;2024-03-02T04:26:44;50.72;;;26.52;;
82811;SDS011;72567;55.696;37.960;2024-03-02T04:29:45;48.58;;;24.45;;
82811;SDS011;72567;55.696;37.960;2024-03-02T04:32:46;47.30;;;23.40;;
82811;SDS011;72567;55.696;37.960;2024-03-02T04:35:46;46.22;;;24.63;;
82811;SDS011;72567;55.696;37.960;2024-03-02T04:38:47;47.55;;;23.40;;
82811;SDS011;72567;55.696;37.960;2024-03-02T04:41:48;48.80;;;24.48;;
82811;SDS011;72567;55.696;37.960;2024-03-02T04:44:49;45.92;;;24.17;;
82811;SDS011;72567;55.696;37.960;2024-03-02T04:47:49;44.40;;;22.15;;
82811;SDS011;72567;55.696;37.960;2024-03-02T04:50:50;44.63;;;21.80;;
82811;SDS011;72567;55.696;37.960;2024-03-02T04:53:51;39.08;;;20.55;;
82811;SDS011;72567;55.696;37.960;2024-03-02T04:56:51;47.78;;;22.25;;
82811;SDS011;72567;55.696;37.960;2024-03-02T04:59:52;39.85;;;21.90;;
82811;SDS011;72567;55.696;37.960;2024-03-02T05:02:53;40.42;;;20.73;;
82811;SDS011;72567;55.696;37.960;2024-03-02T05:05:53;46.88;;;23.85;;
82811;SDS011;72567;55.696;37.960;2024-03-02T05:08:54;46.08;;;22.50;;
82811;SDS011;72567;55.696;37.960;2024-03-02T05:11:55;43.22;;;20.60;;
82811;SDS011;72567;55.696;37.960;2024-03-02T05:15:21;42.60;;;21.77;;
82811;SDS011;72567;55.696;37.960;2024-03-02T05:18:22;40.33;;;21.35;;
82811;SDS011;72567;55.696;37.960;2024-03-02T05:21:24;41.00;;;21.48;;
82811;SDS011;72567;55.696;37.960;2024-03-02T05:24:24;47.13;;;23.95;;
82811;SDS011;72567;55.696;37.960;2024-03-02T05:27:27;41.88;;;22.33;;
82811;SDS011;72567;55.696;37.960;2024-03-02T05:30:28;55.55;;;27.50;;
82811;SDS011;72567;55.696;37.960;2024-03-02T05:33:28;55.25;;;28.00;;
82811;SDS011;72567;55.696;37.960;2024-03-02T05:36:31;61.70;;;27.38;;
82811;SDS011;72567;55.696;37.960;2024-03-02T05:39:32;60.80;;;30.15;;
82811;SDS011;72567;55.696;37.960;2024-03-02T05:42:32;47.63;;;24.83;;
82811;SDS011;72567;55.696;37.960;2024-03-02T05:45:33;50.20;;;25.20;;
82811;SDS011;72567;55.696;37.960;2024-03-02T05:48:34;50.95;;;27.33;;
82811;SDS011;72567;55.696;37.960;2024-03-02T05:51:34;50.92;;;25.75;;
82811;SDS011;72567;55.696;37.960;2024-03-02T05:54:35;53.60;;;26.20;;
82811;SDS011;72567;55.696;37.960;2024-03-02T05:57:36;53.88;;;29.02;;
82811;SDS011;72567;55.696;37.960;2024-03-02T06:00:55;61.22;;;28.23;;
82811;SDS011;72567;55.696;37.960;2024-03-02T06:03:57;54.20;;;26.42;;
82811;SDS011;72567;55.696;37.960;2024-03-02T06:06:59;58.15;;;29.50;;
82811;SDS011;72567;55.696;37.960;2024-03-02T06:09:59;48.08;;;27.05;;
82811;SDS011;72567;55.696;37.960;2024-03-02T06:13:00;54.22;;;26.92;;
82811;SDS011;72567;55.696;37.960;2024-03-02T06:16:01;55.55;;;29.42;;
82811;SDS011;72567;55.696;37.960;2024-03-02T06:19:01;55.30;;;27.58;;
82811;SDS011;72567;55.696;37.960;2024-03-02T06:22:02;58.67;;;27.58;;
82811;SDS011;72567;55.696;37.960;2024-03-02T06:25:04;58.38;;;30.60;;
82811;SDS011;72567;55.696;37.960;2024-03-02T06:28:05;56.95;;;29.42;;
82811;SDS011;72567;55.696;37.960;2024-03-02T06:31:05;46.83;;;24.90;;
82811;SDS011;72567;55.696;37.960;2024-03-02T06:34:06;57.72;;;29.15;;
82811;SDS011;72567;55.696;37.960;2024-03-02T06:37:08;60.53;;;31.08;;
82811;SDS011;72567;55.696;37.960;2024-03-02T06:40:09;56.58;;;27.75;;
82811;SDS011;72567;55.696;37.960;2024-03-02T06:43:10;54.40;;;27.45;;
82811;SDS011;72567;55.696;37.960;2024-03-02T06:46:10;56.85;;;30.55;;
82811;SDS011;72567;55.696;37.960;2024-03-02T06:49:14;58.20;;;29.05;;
82811;SDS011;72567;55.696;37.960;2024-03-02T06:52:17;57.92;;;28.13;;
82811;SDS011;72567;55.696;37.960;2024-03-02T06:55:18;59.03;;;27.88;;
82811;SDS011;72567;55.696;37.960;2024-03-02T06:58:19;56.42;;;26.90;;
82811;SDS011;72567;55.696;37.960;2024-03-02T07:01:19;51.00;;;27.95;;
82811;SDS011;72567;55.696;37.960;2024-03-02T07:04:20;57.28;;;28.08;;
82811;SDS011;72567;55.696;37.960;2024-03-02T07:07:21;51.53;;;26.10;;
82811;SDS011;72567;55.696;37.960;2024-03-02T07:10:21;54.50;;;28.85;;
82811;SDS011;72567;55.696;37.960;2024-03-02T07:13:23;56.17;;;27.23;;
82811;SDS011;72567;55.696;37.960;2024-03-02T07:16:23;47.88;;;23.13;;
82811;SDS011;72567;55.696;37.960;2024-03-02T07:19:33;52.63;;;27.30;;
82811;SDS011;72567;55.696;37.960;2024-03-02T07:22:34;48.42;;;25.30;;
82811;SDS011;72567;55.696;37.960;2024-03-02T07:25:34;44.30;;;25.02;;
82811;SDS011;72567;55.696;37.960;2024-03-02T07:28:35;50.85;;;25.80;;
82811;SDS011;72567;55.696;37.960;2024-03-02T07:31:36;48.35;;;24.83;;
82811;SDS011;72567;55.696;37.960;2024-03-02T07:34:37;54.35;;;27.80;;
82811;SDS011;72567;55.696;37.960;2024-03-02T07:37:43;54.28;;;24.02;;
82811;SDS011;72567;55.696;37.960;2024-03-02T07:40:43;48.70;;;25.08;;
82811;SDS011;72567;55.696;37.960;2024-03-02T07:43:44;50.30;;;28.17;;
82811;SDS011;72567;55.696;37.960;2024-03-02T07:46:45;49.08;;;25.85;;
82811;SDS011;72567;55.696;37.960;2024-03-02T07:49:52;50.28;;;26.38;;
82811;SDS011;72567;55.696;37.960;2024-03-02T07:52:53;47.75;;;26.30;;
82811;SDS011;72567;55.696;37.960;2024-03-02T07:55:53;48.50;;;24.60;;
82811;SDS011;72567;55.696;37.960;2024-03-02T07:58:54;57.90;;;28.05;;
82811;SDS011;72567;55.696;37.960;2024-03-02T08:01:57;43.92;;;22.48;;
82811;SDS011;72567;55.696;37.960;2024-03-02T08:04:58;46.17;;;23.27;;
82811;SDS011;72567;55.696;37.960;2024-03-02T08:07:59;52.42;;;26.45;;
82811;SDS011;72567;55.696;37.960;2024-03-02T08:11:00;50.25;;;27.67;;
82811;SDS011;72567;55.696;37.960;2024-03-02T08:14:00;48.80;;;24.20;;
82811;SDS011;72567;55.696;37.960;2024-03-02T08:17:01;51.05;;;25.33;;
82811;SDS011;72567;55.696;37.960;2024-03-02T08:20:02;48.17;;;22.85;;
82811;SDS011;72567;55.696;37.960;2024-03-02T08:23:04;46.15;;;23.67;;
82811;SDS011;72567;55.696;37.960;2024-03-02T08:26:05;54.40;;;24.08;;
82811;SDS011;72567;55.696;37.960;2024-03-02T08:29:05;46.47;;;24.65;;
82811;SDS011;72567;55.696;37.960;2024-03-02T08:32:06;46.45;;;23.98;;
82811;SDS011;72567;55.696;37.960;2024-03-02T08:35:07;48.03;;;22.27;;
82811;SDS011;72567;55.696;37.960;2024-03-02T08:38:08;43.05;;;25.23;;
82811;SDS011;72567;55.696;37.960;2024-03-02T08:41:08;44.05;;;23.77;;
82811;SDS011;72567;55.696;37.960;2024-03-02T08:44:09;48.50;;;25.35;;
82811;SDS011;72567;55.696;37.960;2024-03-02T08:47:10;42.78;;;22.52;;
82811;SDS011;72567;55.696;37.960;2024-03-02T08:50:10;47.28;;;22.10;;
82811;SDS011;72567;55.696;37.960;2024-03-02T08:53:11;43.58;;;24.38;;
82811;SDS011;72567;55.696;37.960;2024-03-02T08:56:12;46.60;;;23.30;;
82811;SDS011;72567;55.696;37.960;2024-03-02T08:59:13;45.70;;;23.48;;
82811;SDS011;72567;55.696;37.960;2024-03-02T09:02:13;43.03;;;22.08;;
82811;SDS011;72567;55.696;37.960;2024-03-02T09:05:15;42.20;;;24.05;;
82811;SDS011;72567;55.696;37.960;2024-03-02T09:08:16;48.15;;;22.60;;
82811;SDS011;72567;55.696;37.960;2024-03-02T09:11:16;42.33;;;21.52;;
82811;SDS011;72567;55.696;37.960;2024-03-02T09:14:17;52.63;;;24.65;;
82811;SDS011;72567;55.696;37.960;2024-03-02T09:17:18;60.72;;;31.40;;
82811;SDS011;72567;55.696;37.960;2024-03-02T09:20:18;47.88;;;25.42;;
82811;SDS011;72567;55.696;37.960;2024-03-02T09:23:19;41.88;;;23.85;;
82811;SDS011;72567;55.696;37.960;2024-03-02T09:26:20;40.00;;;23.42;;
82811;SDS011;72567;55.696;37.960;2024-03-02T09:29:20;43.40;;;22.05;;
82811;SDS011;72567;55.696;37.960;2024-03-02T09:32:21;46.22;;;23.20;;
82811;SDS011;72567;55.696;37.960;2024-03-02T09:35:22;43.75;;;22.42;;
82811;SDS011;72567;55.696;37.960;2024-03-02T09:38:22;35.22;;;19.38;;
82811;SDS011;72567;55.696;37.960;2024-03-02T09:41:23;41.72;;;21.80;;
82811;SDS011;72567;55.696;37.960;2024-03-02T09:44:25;35.53;;;20.20;;
82811;SDS011;72567;55.696;37.960;2024-03-02T09:47:26;47.03;;;24.55;;
82811;SDS011;72567;55.696;37.960;2024-03-02T09:50:27;50.45;;;22.35;;
82811;SDS011;72567;55.696;37.960;2024-03-02T09:53:29;39.78;;;22.15;;
82811;SDS011;72567;55.696;37.960;2024-03-02T09:56:32;39.53;;;20.40;;
82811;SDS011;72567;55.696;37.960;2024-03-02T09:59:33;38.55;;;21.25;;
82811;SDS011;72567;55.696;37.960;2024-03-02T10:02:34;38.35;;;21.38;;
82811;SDS011;72567;55.696;37.960;2024-03-02T10:05:35;35.75;;;18.40;;
82811;SDS011;72567;55.696;37.960;2024-03-02T10:08:45;41.28;;;21.85;;
82811;SDS011;72567;55.696;37.960;2024-03-02T10:11:45;37.88;;;18.42;;
82811;SDS011;72567;55.696;37.960;2024-03-02T10:14:46;36.70;;;19.17;;
82811;SDS011;72567;55.696;37.960;2024-03-02T10:17:48;31.02;;;19.60;;
82811;SDS011;72567;55.696;37.960;2024-03-02T10:20:49;40.25;;;19.50;;
82811;SDS011;72567;55.696;37.960;2024-03-02T10:23:49;42.85;;;21.55;;
82811;SDS011;72567;55.696;37.960;2024-03-02T10:26:51;34.55;;;17.42;;
82811;SDS011;72567;55.696;37.960;2024-03-02T10:29:52;35.92;;;18.30;;
82811;SDS011;72567;55.696;37.960;2024-03-02T10:32:53;35.45;;;20.10;;
82811;SDS011;72567;55.696;37.960;2024-03-02T10:35:54;36.22;;;20.00;;
82811;SDS011;72567;55.696;37.960;2024-03-02T10:38:58;33.75;;;18.92;;
82811;SDS011;72567;55.696;37.960;2024-03-02T10:42:00;35.80;;;17.30;;
82811;SDS011;72567;55.696;37.960;2024-03-02T10:45:03;34.35;;;19.00;;
82811;SDS011;72567;55.696;37.960;2024-03-02T10:48:06;37.08;;;19.95;;
82811;SDS011;72567;55.696;37.960;2024-03-02T10:51:07;34.50;;;17.17;;
82811;SDS011;72567;55.696;37.960;2024-03-02T10:54:08;29.83;;;16.52;;
82811;SDS011;72567;55.696;37.960;2024-03-02T10:57:08;41.95;;;20.42;;
82811;SDS011;72567;55.696;37.960;2024-03-02T11:00:12;32.80;;;18.25;;
82811;SDS011;72567;55.696;37.960;2024-03-02T11:03:16;32.67;;;18.50;;
82811;SDS011;72567;55.696;37.960;2024-03-02T11:06:17;32.08;;;18.45;;
82811;SDS011;72567;55.696;37.960;2024-03-02T11:09:19;39.42;;;19.17;;
82811;SDS011;72567;55.696;37.960;2024-03-02T11:12:23;32.40;;;18.50;;
82811;SDS011;72567;55.696;37.960;2024-03-02T11:15:29;54.38;;;28.73;;
82811;SDS011;72567;55.696;37.960;2024-03-02T11:18:31;32.30;;;19.05;;
82811;SDS011;72567;55.696;37.960;2024-03-02T11:21:33;32.10;;;16.88;;
82811;SDS011;72567;55.696;37.960;2024-03-02T11:24:34;39.70;;;19.08;;
82811;SDS011;72567;55.696;37.960;2024-03-02T11:30:49;35.78;;;18.92;;
82811;SDS011;72567;55.696;37.960;2024-03-02T11:33:50;32.15;;;18.23;;
82811;SDS011;72567;55.696;37.960;2024-03-02T11:36:50;28.50;;;16.88;;
82811;SDS011;72567;55.696;37.960;2024-03-02T11:39:51;32.58;;;18.95;;
82811;SDS011;72567;55.696;37.960;2024-03-02T11:42:52;33.22;;;19.33;;
82811;SDS011;72567;55.696;37.960;2024-03-02T11:45:56;30.40;;;17.58;;
82811;SDS011;72567;55.696;37.960;2024-03-02T11:48:59;43.33;;;20.83;;
82811;SDS011;72567;55.696;37.960;2024-03-02T11:52:03;32.65;;;17.65;;
82811;SDS011;72567;55.696;37.960;2024-03-02T11:55:05;27.85;;;17.65;;
82811;SDS011;72567;55.696;37.960;2024-03-02T11:58:07;31.83;;;18.38;;
82811;SDS011;72567;55.696;37.960;2024-03-02T12:01:08;34.20;;;20.30;;
82811;SDS011;72567;55.696;37.960;2024-03-02T12:04:10;31.88;;;17.33;;
82811;SDS011;72567;55.696;37.960;2024-03-02T12:07:11;34.42;;;18.25;;
82811;SDS011;72567;55.696;37.960;2024-03-02T12:10:13;28.95;;;15.63;;
82811;SDS011;72567;55.696;37.960;2024-03-02T12:13:15;32.25;;;17.05;;
82811;SDS011;72567;55.696;37.960;2024-03-02T12:16:22;33.80;;;16.98;;
82811;SDS011;72567;55.696;37.960;2024-03-02T12:19:26;29.52;;;16.48;;
82811;SDS011;72567;55.696;37.960;2024-03-02T12:22:27;33.70;;;18.10;;
82811;SDS011;72567;55.696;37.960;2024-03-02T12:25:29;31.83;;;18.30;;
82811;SDS011;72567;55.696;37.960;2024-03-02T12:28:33;30.75;;;16.02;;
82811;SDS011;72567;55.696;37.960;2024-03-02T12:31:35;30.20;;;17.00;;
82811;SDS011;72567;55.696;37.960;2024-03-02T12:34:38;31.15;;;16.65;;
82811;SDS011;72567;55.696;37.960;2024-03-02T12:37:46;34.95;;;16.85;;
82811;SDS011;72567;55.696;37.960;2024-03-02T12:40:48;37.42;;;17.25;;
82811;SDS011;72567;55.696;37.960;2024-03-02T12:43:49;33.40;;;17.83;;
82811;SDS011;72567;55.696;37.960;2024-03-02T12:46:50;28.10;;;15.50;;
82811;SDS011;72567;55.696;37.960;2024-03-02T12:49:52;29.90;;;16.92;;
82811;SDS011;72567;55.696;37.960;2024-03-02T12:52:53;32.70;;;16.55;;
82811;SDS011;72567;55.696;37.960;2024-03-02T12:55:54;27.45;;;15.90;;
82811;SDS011;72567;55.696;37.960;2024-03-02T12:58:56;33.78;;;15.25;;
82811;SDS011;72567;55.696;37.960;2024-03-02T13:01:57;28.48;;;16.05;;
82811;SDS011;72567;55.696;37.960;2024-03-02T13:04:58;28.00;;;15.05;;
82811;SDS011;72567;55.696;37.960;2024-03-02T13:07:59;30.08;;;14.00;;
82811;SDS011;72567;55.696;37.960;2024-03-02T13:11:04;27.70;;;14.27;;
82811;SDS011;72567;55.696;37.960;2024-03-02T13:14:07;32.25;;;16.30;;
82811;SDS011;72567;55.696;37.960;2024-03-02T13:17:08;33.30;;;16.35;;
82811;SDS011;72567;55.696;37.960;2024-03-02T13:20:09;32.42;;;16.75;;
82811;SDS011;72567;55.696;37.960;2024-03-02T13:23:10;35.88;;;16.60;;
82811;SDS011;72567;55.696;37.960;2024-03-02T13:26:11;36.35;;;18.63;;
82811;SDS011;72567;55.696;37.960;2024-03-02T13:29:12;31.83;;;18.77;;
82811;SDS011;72567;55.696;37.960;2024-03-02T13:32:14;32.08;;;16.35;;
82811;SDS011;72567;55.696;37.960;2024-03-02T13:35:18;35.22;;;18.35;;
82811;SDS011;72567;55.696;37.960;2024-03-02T13:38:19;24.20;;;15.02;;
82811;SDS011;72567;55.696;37.960;2024-03-02T13:41:20;35.33;;;15.73;;
82811;SDS011;72567;55.696;37.960;2024-03-02T13:44:21;25.60;;;14.10;;
82811;SDS011;72567;55.696;37.960;2024-03-02T13:47:22;32.05;;;16.15;;
82811;SDS011;72567;55.696;37.960;2024-03-02T13:50:22;38.80;;;18.88;;
82811;SDS011;72567;55.696;37.960;2024-03-02T13:53:23;38.40;;;20.40;;
82811;SDS011;72567;55.696;37.960;2024-03-02T13:56:24;37.85;;;21.58;;
82811;SDS011;72567;55.696;37.960;2024-03-02T13:59:25;34.30;;;18.40;;
82811;SDS011;72567;55.696;37.960;2024-03-02T14:02:26;30.42;;;16.65;;
82811;SDS011;72567;55.696;37.960;2024-03-02T14:05:26;25.52;;;15.73;;
82811;SDS011;72567;55.696;37.960;2024-03-02T14:08:27;28.40;;;16.88;;
82811;SDS011;72567;55.696;37.960;2024-03-02T14:11:28;33.08;;;16.80;;
82811;SDS011;72567;55.696;37.960;2024-03-02T14:14:29;32.35;;;16.10;;
82811;SDS011;72567;55.696;37.960;2024-03-02T14:17:29;33.03;;;17.00;;
82811;SDS011;72567;55.696;37.960;2024-03-02T14:20:32;25.50;;;15.05;;
82811;SDS011;72567;55.696;37.960;2024-03-02T14:23:33;28.65;;;16.45;;
82811;SDS011;72567;55.696;37.960;2024-03-02T14:26:34;36.13;;;18.13;;
82811;SDS011;72567;55.696;37.960;2024-03-02T14:29:35;31.45;;;16.10;;
82811;SDS011;72567;55.696;37.960;2024-03-02T14:32:37;34.70;;;16.85;;
82811;SDS011;72567;55.696;37.960;2024-03-02T14:35:38;38.42;;;18.25;;
82811;SDS011;72567;55.696;37.960;2024-03-02T14:38:39;32.15;;;16.65;;
82811;SDS011;72567;55.696;37.960;2024-03-02T14:41:39;30.15;;;16.58;;
82811;SDS011;72567;55.696;37.960;2024-03-02T14:44:40;30.67;;;16.90;;
82811;SDS011;72567;55.696;37.960;2024-03-02T14:47:40;29.60;;;17.40;;
82811;SDS011;72567;55.696;37.960;2024-03-02T14:50:42;25.63;;;16.77;;
82811;SDS011;72567;55.696;37.960;2024-03-02T14:53:43;30.52;;;16.33;;
82811;SDS011;72567;55.696;37.960;2024-03-02T14:56:44;35.28;;;18.45;;
82811;SDS011;72567;55.696;37.960;2024-03-02T14:59:44;34.78;;;16.88;;
82811;SDS011;72567;55.696;37.960;2024-03-02T15:02:45;27.40;;;16.02;;
82811;SDS011;72567;55.696;37.960;2024-03-02T15:05:46;28.92;;;16.48;;
82811;SDS011;72567;55.696;37.960;2024-03-02T15:08:49;31.23;;;18.58;;
82811;SDS011;72567;55.696;37.960;2024-03-02T15:11:50;28.63;;;16.20;;
82811;SDS011;72567;55.696;37.960;2024-03-02T15:14:51;28.55;;;17.05;;
82811;SDS011;72567;55.696;37.960;2024-03-02T15:17:52;30.48;;;17.25;;
82811;SDS011;72567;55.696;37.960;2024-03-02T15:20:53;30.73;;;18.13;;
82811;SDS011;72567;55.696;37.960;2024-03-02T15:23:53;40.50;;;18.27;;
82811;SDS011;72567;55.696;37.960;2024-03-02T15:26:54;34.55;;;19.40;;
82811;SDS011;72567;55.696;37.960;2024-03-02T15:29:55;33.35;;;18.70;;
82811;SDS011;72567;55.696;37.960;2024-03-02T15:32:57;32.53;;;19.40;;
82811;SDS011;72567;55.696;37.960;2024-03-02T15:35:58;36.38;;;19.80;;
82811;SDS011;72567;55.696;37.960;2024-03-02T15:39:03;35.25;;;20.42;;
82811;SDS011;72567;55.696;37.960;2024-03-02T15:42:08;35.70;;;20.98;;
82811;SDS011;72567;55.696;37.960;2024-03-02T15:45:09;43.47;;;23.88;;
82811;SDS011;72567;55.696;37.960;2024-03-02T15:48:10;29.67;;;17.95;;
82811;SDS011;72567;55.696;37.960;2024-03-02T15:51:10;42.97;;;22.20;;
82811;SDS011;72567;55.696;37.960;2024-03-02T15:54:12;33.10;;;20.15;;
82811;SDS011;72567;55.696;37.960;2024-03-02T15:57:13;40.28;;;20.65;;
82811;SDS011;72567;55.696;37.960;2024-03-02T16:00:14;49.15;;;20.20;;
82811;SDS011;72567;55.696;37.960;2024-03-02T16:03:15;36.58;;;20.60;;
82811;SDS011;72567;55.696;37.960;2024-03-02T16:06:15;29.77;;;18.33;;
82811;SDS011;72567;55.696;37.960;2024-03-02T16:09:16;28.48;;;16.85;;
82811;SDS011;72567;55.696;37.960;2024-03-02T16:12:17;32.85;;;16.45;;
82811;SDS011;72567;55.696;37.960;2024-03-02T16:15:17;30.35;;;16.77;;
82811;SDS011;72567;55.696;37.960;2024-03-02T16:18:18;20.88;;;12.38;;
82811;SDS011;72567;55.696;37.960;2024-03-02T16:21:19;47.05;;;24.40;;
82811;SDS011;72567;55.696;37.960;2024-03-02T16:24:20;47.05;;;24.35;;
82811;SDS011;72567;55.696;37.960;2024-03-02T16:27:21;26.38;;;14.68;;
82811;SDS011;72567;55.696;37.960;2024-03-02T16:30:21;26.85;;;14.15;;
82811;SDS011;72567;55.696;37.960;2024-03-02T16:33:24;27.60;;;12.77;;
82811;SDS011;72567;55.696;37.960;2024-03-02T16:36:25;24.50;;;13.23;;
82811;SDS011;72567;55.696;37.960;2024-03-02T16:39:31;30.10;;;16.38;;
82811;SDS011;72567;55.696;37.960;2024-03-02T16:42:31;26.10;;;14.35;;
82811;SDS011;72567;55.696;37.960;2024-03-02T16:45:32;29.88;;;16.25;;
82811;SDS011;72567;55.696;37.960;2024-03-02T16:48:33;30.52;;;17.27;;
82811;SDS011;72567;55.696;37.960;2024-03-02T16:51:40;26.23;;;14.77;;
82811;SDS011;72567;55.696;37.960;2024-03-02T16:54:42;34.65;;;18.70;;
82811;SDS011;72567;55.696;37.960;2024-03-02T16:57:43;30.10;;;16.25;;
82811;SDS011;72567;55.696;37.960;2024-03-02T17:00:43;27.55;;;14.93;;
82811;SDS011;72567;55.696;37.960;2024-03-02T17:03:45;24.90;;;14.95;;
82811;SDS011;72567;55.696;37.960;2024-03-02T17:06:45;26.10;;;16.08;;
82811;SDS011;72567;55.696;37.960;2024-03-02T17:09:47;27.45;;;17.00;;
82811;SDS011;72567;55.696;37.960;2024-03-02T17:12:48;34.85;;;17.63;;
82811;SDS011;72567;55.696;37.960;2024-03-02T17:15:48;24.55;;;14.00;;
82811;SDS011;72567;55.696;37.960;2024-03-02T17:18:49;27.73;;;13.57;;
82811;SDS011;72567;55.696;37.960;2024-03-02T17:21:50;25.63;;;14.45;;
82811;SDS011;72567;55.696;37.960;2024-03-02T17:24:50;24.45;;;14.20;;
82811;SDS011;72567;55.696;37.960;2024-03-02T17:27:54;31.05;;;16.20;;
82811;SDS011;72567;55.696;37.960;2024-03-02T17:31:16;25.15;;;13.50;;